createdAt,value
2022-11-24T00:00:59.828Z,78.8
2022-11-24T00:06:48.107Z,78.7
2022-11-24T00:12:48.005Z,78.4
2022-11-24T00:18:48.132Z,78.2
2022-11-24T00:24:47.230Z,78.3
2022-11-24T00:30:55.684Z,78
2022-11-24T00:36:47.631Z,77.7
2022-11-24T00:42:47.486Z,77.6
2022-11-24T00:48:47.237Z,77.3
2022-11-24T00:54:47.653Z,77.5
2022-11-24T01:00:59.620Z,77.5
2022-11-24T01:06:47.401Z,78.2
2022-11-24T01:12:47.333Z,78.3
2022-11-24T01:18:47.410Z,78.7
2022-11-24T01:24:48.116Z,78.8
2022-11-24T01:30:55.406Z,78.2
2022-11-24T01:36:47.059Z,78.3
2022-11-24T01:42:47.478Z,78.4
2022-11-24T01:48:47.052Z,78.5
2022-11-24T01:54:47.077Z,79.7
2022-11-24T02:00:57.605Z,79.8
2022-11-24T02:06:47.078Z,79.9
2022-11-24T02:12:47.381Z,79.7
2022-11-24T02:18:47.539Z,79.4
2022-11-24T02:24:47.016Z,79.4
2022-11-24T02:30:48.106Z,79.3
2022-11-24T02:36:47.194Z,79.1
2022-11-24T02:42:47.748Z,79.3
2022-11-24T02:48:48.758Z,79.3
2022-11-24T02:54:50.972Z,79.2
2022-11-24T03:01:04.406Z,79.3
2022-11-24T03:06:54.794Z,79.4
2022-11-24T03:12:58.250Z,79.3
2022-11-24T03:18:49.579Z,79.1
2022-11-24T03:24:58.957Z,79.5
2022-11-24T03:31:00.242Z,79.4
2022-11-24T03:37:02.467Z,79.1
2022-11-24T03:42:52.145Z,79
2022-11-24T03:48:51.168Z,79.1
2022-11-24T03:54:51.433Z,79
2022-11-24T04:01:07.162Z,79
2022-11-24T04:06:48.807Z,78.8
2022-11-24T04:12:53.263Z,78.7
2022-11-24T04:18:52.642Z,78.5
2022-11-24T04:24:55.188Z,78.5
2022-11-24T04:30:56.207Z,78.2
2022-11-24T04:36:48.378Z,78.1
2022-11-24T04:42:48.476Z,78.1
2022-11-24T04:48:55.137Z,78.1
2022-11-24T04:54:55.179Z,77.9
2022-11-24T05:00:59.728Z,77.8
2022-11-24T05:06:58.629Z,77.7
2022-11-24T05:12:58.458Z,77.8
2022-11-24T05:19:04.002Z,78
2022-11-24T05:24:56.912Z,77.9
2022-11-24T05:31:03.824Z,77.7
2022-11-24T05:36:51.991Z,77.7
2022-11-24T05:43:07.002Z,77.9
2022-11-24T05:48:48.841Z,77.6
2022-11-24T05:54:52.084Z,77.5
2022-11-24T06:01:09.441Z,77.6
2022-11-24T06:07:02.364Z,77.4
2022-11-24T06:12:55.312Z,77.5
2022-11-24T06:18:52.533Z,78.1
2022-11-24T06:24:50.893Z,78.1
2022-11-24T06:31:07.154Z,78
2022-11-24T06:37:00.600Z,78.3
2022-11-24T06:43:05.073Z,78.6
2022-11-24T06:48:53.769Z,78.7
2022-11-24T06:54:51.073Z,78.8
2022-11-24T07:00:57.756Z,78.8
2022-11-24T07:06:51.373Z,78.9
2022-11-24T07:12:54.205Z,79
2022-11-24T07:18:55.161Z,78.9
2022-11-24T07:24:54.994Z,78.7
2022-11-24T07:30:58.711Z,78.4
2022-11-24T07:36:51.977Z,78.4
2022-11-24T07:42:54.173Z,77.9
2022-11-24T07:49:04.921Z,77.8
2022-11-24T07:54:50.555Z,77.8
2022-11-24T08:01:04.533Z,77.2
2022-11-24T08:06:55.413Z,77.1
2022-11-24T08:13:05.358Z,77.3
2022-11-24T08:18:59.173Z,77.4
2022-11-24T08:24:56.378Z,77.2
2022-11-24T08:30:56.934Z,76.3
2022-11-24T08:36:54.313Z,76.2
2022-11-24T08:43:01.050Z,76.3
2022-11-24T08:49:00.370Z,75.9
2022-11-24T08:54:57.092Z,75.3
2022-11-24T09:01:13.377Z,74.9
2022-11-24T09:06:51.364Z,74.2
2022-11-24T09:13:02.365Z,73.8
2022-11-24T09:18:59.750Z,72.9
2022-11-24T09:25:16.048Z,72.8
2022-11-24T09:30:57.152Z,72.8
2022-11-24T09:36:53.244Z,72.3
2022-11-24T09:42:53.350Z,72
2022-11-24T09:48:47.378Z,71
2022-11-24T09:54:50.329Z,70.9
2022-11-24T10:00:58.424Z,72.1
2022-11-24T10:06:50.976Z,72.1
2022-11-24T10:12:49.977Z,71.7
2022-11-24T10:18:47.199Z,71.7
2022-11-24T10:24:48.012Z,71.7
2022-11-24T10:30:57.821Z,69.4
2022-11-24T10:36:48.814Z,70.1
2022-11-24T10:42:49.982Z,68.5
2022-11-24T10:48:56.848Z,66.5
2022-11-24T10:54:48.079Z,66.9
2022-11-24T11:00:55.563Z,66.1
2022-11-24T11:06:47.826Z,65.7
2022-11-24T11:12:49.008Z,66.4
2022-11-24T11:18:50.759Z,62.5
2022-11-24T11:24:48.657Z,62.9
2022-11-24T11:31:21.403Z,63.3
2022-11-24T11:36:58.276Z,62.3
2022-11-24T11:43:05.992Z,61.1
2022-11-24T11:48:49.914Z,61.4
2022-11-24T11:54:47.289Z,61
2022-11-24T12:00:51.613Z,60.9
2022-11-24T12:06:47.185Z,59
2022-11-24T12:12:47.725Z,59
2022-11-24T12:19:01.247Z,58.7
2022-11-24T12:24:49.175Z,58.7
2022-11-24T12:30:47.063Z,56.6
2022-11-24T12:36:47.030Z,55.8
2022-11-24T12:42:47.053Z,55.8
2022-11-24T12:48:47.190Z,55.8
2022-11-24T12:54:47.964Z,55.1
2022-11-24T13:00:47.390Z,54.9
2022-11-24T13:06:49.280Z,54.9
2022-11-24T13:12:47.154Z,55
2022-11-24T13:18:47.457Z,53.3
2022-11-24T13:24:47.084Z,51.2
2022-11-24T13:30:47.482Z,51.6
2022-11-24T13:36:47.002Z,51.4
2022-11-24T13:42:47.134Z,51.4
2022-11-24T13:48:47.154Z,51.4
2022-11-24T13:54:47.270Z,51.2
2022-11-24T14:00:47.155Z,52.1
2022-11-24T14:06:47.320Z,53.5
2022-11-24T14:12:47.347Z,53.2
2022-11-24T14:18:47.517Z,54.8
2022-11-24T14:24:48.000Z,55.4
2022-11-24T14:30:49.864Z,55.2
2022-11-24T14:36:47.448Z,55.9
2022-11-24T14:42:47.339Z,55.9
2022-11-24T14:48:48.500Z,56.3
2022-11-24T14:54:47.905Z,57.5
2022-11-24T15:00:51.953Z,57.1
2022-11-24T15:06:47.330Z,57.8
2022-11-24T15:12:48.322Z,57.6
2022-11-24T15:18:47.574Z,58
2022-11-24T15:24:47.357Z,58.7
2022-11-24T15:30:50.984Z,58.8
2022-11-24T15:36:47.275Z,60.1
2022-11-24T15:42:48.595Z,60.3
2022-11-24T15:48:47.629Z,60.8
2022-11-24T15:54:47.658Z,61.3
2022-11-24T16:00:57.467Z,61.6
2022-11-24T16:06:47.533Z,61.8
2022-11-24T16:12:47.664Z,62.5
2022-11-24T16:18:48.159Z,62.7
2022-11-24T16:24:47.769Z,63.6
2022-11-24T16:30:56.694Z,63.8
2022-11-24T16:36:47.785Z,64.6
2022-11-24T16:42:48.507Z,64.6
2022-11-24T16:48:48.099Z,64.7
2022-11-24T16:54:48.137Z,64.6
2022-11-24T17:00:55.437Z,64.5
2022-11-24T17:06:47.798Z,64.5
2022-11-24T17:12:47.903Z,64.7
2022-11-24T17:18:47.550Z,65.1
2022-11-24T17:24:47.644Z,65.3
2022-11-24T17:30:58.733Z,65.3
2022-11-24T17:36:47.889Z,65.2
2022-11-24T17:42:48.280Z,65.3
2022-11-24T17:48:47.425Z,65.4
2022-11-24T17:54:47.466Z,65.9
2022-11-24T18:00:58.772Z,66
2022-11-24T18:06:47.318Z,66.4
2022-11-24T18:12:47.526Z,66.6
2022-11-24T18:18:50.218Z,66.8
2022-11-24T18:24:47.433Z,66.9
2022-11-24T18:30:58.161Z,67.1
2022-11-24T18:36:47.571Z,67.3
2022-11-24T18:42:47.875Z,67.4
2022-11-24T18:48:48.401Z,67.7
2022-11-24T18:54:48.217Z,68.3
2022-11-24T19:01:00.734Z,68.4
2022-11-24T19:06:48.147Z,68.5
2022-11-24T19:12:47.931Z,68.6
2022-11-24T19:18:51.950Z,68.8
2022-11-24T19:24:47.581Z,69.1
2022-11-24T19:30:58.089Z,69.1
2022-11-24T19:36:48.328Z,69.5
2022-11-24T19:42:47.830Z,69.7
2022-11-24T19:48:47.922Z,69.9
2022-11-24T19:54:48.132Z,69.8
2022-11-24T20:00:57.063Z,70.1
2022-11-24T20:06:47.715Z,70.2
2022-11-24T20:12:48.611Z,70.8
2022-11-24T20:18:47.953Z,71.1
2022-11-24T20:24:48.299Z,71.3
2022-11-24T20:31:03.397Z,71.5
2022-11-24T20:36:47.624Z,71.5
2022-11-24T20:42:47.821Z,71.8
2022-11-24T20:48:47.594Z,72.4
2022-11-24T20:54:47.596Z,72.5
2022-11-24T21:00:59.364Z,72.1
2022-11-24T21:06:47.543Z,72.2
2022-11-24T21:12:47.922Z,72.3
2022-11-24T21:18:48.165Z,72.4
2022-11-24T21:24:48.704Z,72.5
2022-11-24T21:31:02.601Z,73.1
2022-11-24T21:36:48.359Z,73.2
2022-11-24T21:42:47.684Z,73.1
2022-11-24T21:48:47.481Z,74.6
2022-11-24T21:54:48.171Z,74.1
2022-11-24T22:01:02.480Z,73.7
2022-11-24T22:06:48.303Z,73.2
2022-11-24T22:12:50.957Z,73.2
2022-11-24T22:18:58.054Z,72.9
2022-11-24T22:24:54.339Z,73
2022-11-24T22:31:03.989Z,73.4
2022-11-24T22:36:54.347Z,73.6
2022-11-24T22:43:01.236Z,73.5
2022-11-24T22:48:54.866Z,73.4
2022-11-24T22:54:54.272Z,73.4
2022-11-24T23:01:00.954Z,73.5
2022-11-24T23:07:00.414Z,73.5
2022-11-24T23:12:57.623Z,73.6
2022-11-24T23:18:57.014Z,73.9
2022-11-24T23:25:07.290Z,74
2022-11-24T23:30:59.325Z,74
2022-11-24T23:37:03.011Z,74.1
2022-11-24T23:43:07.715Z,74.1
2022-11-24T23:48:49.082Z,73.8
2022-11-24T23:54:50.611Z,73.6
